Terminal Aerodrome Forecast
Issued by NWS Amarillo, TX

Home | Current Version | Previous Version | Text Only | Print | Product List | Glossary On
Versions: 1 2 3 4 5 6 7 8 9 10 11 12 13 14 15 16 17
000
FTUS44 KAMA 301100
TAFGUY
TAF
KGUY 301130Z 3012/3112 02005KT 6SM BR OVC005
     FM301600 08008KT P6SM SCT010 BKN020
     FM301800 13008KT P6SM SCT040 BKN200 PROB30 3100/3106 -TSRA
      OVC030CB=

USA.gov is the U.S. government's official web portal to all federal, state and local government web resources and services.